createdAt,value
2023-03-10T00:03:59.599Z,-0.26
2023-03-10T00:09:03.153Z,-0.25
2023-03-10T00:14:06.797Z,-0.25
2023-03-10T00:19:10.063Z,-0.23
2023-03-10T00:24:13.433Z,-0.23
2023-03-10T00:29:16.544Z,-0.20
2023-03-10T00:34:18.477Z,-0.16
2023-03-10T00:39:21.812Z,-0.17
2023-03-10T00:44:25.446Z,-0.17
2023-03-10T00:49:28.001Z,-0.17
2023-03-10T00:54:30.988Z,-0.16
2023-03-10T00:59:47.922Z,-0.17
2023-03-10T01:04:52.732Z,-0.16
2023-03-10T01:09:56.144Z,-0.14
2023-03-10T01:14:59.185Z,-0.13
2023-03-10T01:20:04.224Z,-0.10
2023-03-10T01:25:06.716Z,-0.06
2023-03-10T01:30:11.682Z,-0.04
2023-03-10T01:35:14.995Z,-0.04
2023-03-10T01:40:18.157Z,-0.04
2023-03-10T01:45:20.645Z,-0.03
2023-03-10T01:50:25.382Z,-0.02
2023-03-10T01:55:37.293Z,-0.01
2023-03-10T02:00:41.850Z,-0.02
2023-03-10T02:05:50.444Z,-0.00
2023-03-10T02:10:54.128Z,0.02
2023-03-10T02:15:57.400Z,0.02
2023-03-10T02:21:33.747Z,0.05
2023-03-10T02:27:15.150Z,0.10
2023-03-10T02:32:19.949Z,0.12
2023-03-10T02:37:27.422Z,0.11
2023-03-10T02:42:36.050Z,0.10
2023-03-10T02:47:40.168Z,0.09
2023-03-10T02:52:50.637Z,0.09
2023-03-10T02:57:54.950Z,0.10
2023-03-10T03:02:59.455Z,0.12
2023-03-10T03:08:03.417Z,0.16
2023-03-10T03:13:07.153Z,0.21
2023-03-10T03:18:10.207Z,0.22
2023-03-10T03:23:12.593Z,0.25
2023-03-10T03:28:14.915Z,0.30
2023-03-10T03:33:17.163Z,0.34
2023-03-10T03:38:20.496Z,0.39
2023-03-10T03:43:23.494Z,0.39
2023-03-10T03:48:26.905Z,0.42
2023-03-10T03:53:30.692Z,0.46
2023-03-10T03:58:32.918Z,0.49
2023-03-10T04:03:36.779Z,0.52
2023-03-10T04:08:40.066Z,0.56
2023-03-10T04:13:43.593Z,0.58
2023-03-10T04:18:47.162Z,0.59
2023-03-10T04:23:50.384Z,0.63
2023-03-10T04:28:53.358Z,0.66
2023-03-10T04:33:56.095Z,0.67
2023-03-10T04:38:59.366Z,0.68
2023-03-10T04:44:03.202Z,0.71
2023-03-10T04:49:06.805Z,0.72
2023-03-10T04:54:11.009Z,0.73
2023-03-10T04:59:14.821Z,0.76
2023-03-10T05:04:18.624Z,0.84
2023-03-10T05:09:22.075Z,0.94
2023-03-10T05:14:25.080Z,1.04
2023-03-10T05:19:28.735Z,1.16
2023-03-10T05:24:31.648Z,1.30
2023-03-10T05:29:34.812Z,1.41
2023-03-10T05:34:37.709Z,1.52
2023-03-10T05:39:40.651Z,1.64
2023-03-10T05:44:43.654Z,1.74
2023-03-10T05:49:46.575Z,1.86
2023-03-10T05:54:48.600Z,1.93
2023-03-10T05:59:52.047Z,2.02
2023-03-10T06:04:55.780Z,2.14
2023-03-10T06:09:58.969Z,2.27
2023-03-10T06:15:03.334Z,2.41
2023-03-10T06:20:07.218Z,2.57
2023-03-10T06:25:10.489Z,2.73
2023-03-10T06:30:15.974Z,2.85
2023-03-10T06:35:22.794Z,2.97
2023-03-10T06:40:27.069Z,3.05
2023-03-10T06:45:30.067Z,3.14
2023-03-10T06:50:35.823Z,3.19
2023-03-10T06:55:39.614Z,3.20
2023-03-10T07:00:42.920Z,3.24
2023-03-10T07:05:45.898Z,3.36
2023-03-10T07:10:50.083Z,3.48
2023-03-10T07:15:54.565Z,3.58
2023-03-10T07:20:58.370Z,3.75
2023-03-10T07:26:01.919Z,3.93
2023-03-10T07:31:14.063Z,4.13
2023-03-10T07:36:21.066Z,4.31
2023-03-10T07:41:25.462Z,4.41
2023-03-10T07:46:28.595Z,4.60
2023-03-10T07:51:32.260Z,4.87
2023-03-10T07:56:36.564Z,5.21
2023-03-10T08:01:39.798Z,5.52
2023-03-10T08:06:43.004Z,5.86
2023-03-10T08:11:45.664Z,6.08
2023-03-10T08:16:47.936Z,6.19
2023-03-10T08:21:50.864Z,6.36
2023-03-10T08:26:53.925Z,6.58
2023-03-10T08:31:57.408Z,6.73
2023-03-10T08:37:00.982Z,6.99
2023-03-10T08:42:03.835Z,7.16
2023-03-10T08:47:07.664Z,7.13
2023-03-10T08:52:11.225Z,7.25
2023-03-10T08:57:14.649Z,7.36
2023-03-10T09:02:17.777Z,7.54
2023-03-10T09:07:20.706Z,7.65
2023-03-10T09:12:23.830Z,7.77
2023-03-10T09:17:27.305Z,7.95
2023-03-10T09:22:30.994Z,8.15
2023-03-10T09:27:34.376Z,8.48
2023-03-10T09:32:37.160Z,9.06
2023-03-10T09:37:39.313Z,9.51
2023-03-10T09:42:49.134Z,9.83
2023-03-10T09:48:10.195Z,10.08
2023-03-10T09:53:30.592Z,10.35
2023-03-10T09:58:41.214Z,10.43
2023-03-10T10:03:53.107Z,10.44
2023-03-10T10:09:06.021Z,10.56
2023-03-10T10:14:27.851Z,10.75
2023-03-10T10:19:34.936Z,10.88
2023-03-10T10:24:41.348Z,11.01
2023-03-10T10:29:47.501Z,11.09
2023-03-10T10:35:09.934Z,11.16
2023-03-10T10:40:27.705Z,11.21
2023-03-10T10:45:38.214Z,11.32
2023-03-10T10:50:53.665Z,11.48
2023-03-10T10:56:15.492Z,11.62
2023-03-10T11:01:19.261Z,11.64
2023-03-10T11:06:30.500Z,11.55
2023-03-10T11:11:58.605Z,11.50
2023-03-10T11:17:07.260Z,11.33
2023-03-10T11:22:48.016Z,11.25
2023-03-10T11:28:28.677Z,11.43
2023-03-10T11:33:37.095Z,11.64
2023-03-10T11:38:43.845Z,11.77
2023-03-10T11:44:03.616Z,11.79
2023-03-10T11:49:12.745Z,11.93
2023-03-10T11:54:26.943Z,12.16
2023-03-10T11:59:36.540Z,12.54
2023-03-10T12:05:11.623Z,12.90
2023-03-10T12:10:18.449Z,13.14
2023-03-10T12:15:37.763Z,13.20
2023-03-10T12:20:40.532Z,13.26
2023-03-10T12:25:46.231Z,13.27
2023-03-10T12:30:57.061Z,13.17
2023-03-10T12:36:07.744Z,13.13
2023-03-10T12:41:11.476Z,13.22
2023-03-10T12:46:23.949Z,13.39
2023-03-10T12:51:31.621Z,13.49
2023-03-10T12:56:40.298Z,13.60
2023-03-10T13:01:55.531Z,13.55
2023-03-10T13:07:04.375Z,13.37
2023-03-10T13:12:15.904Z,13.26
2023-03-10T13:17:31.308Z,13.12
2023-03-10T13:22:36.074Z,13.09
2023-03-10T13:27:40.202Z,13.12
2023-03-10T13:33:02.751Z,13.15
2023-03-10T13:38:10.464Z,13.04
2023-03-10T13:43:35.907Z,12.89
2023-03-10T13:48:44.168Z,12.77
2023-03-10T13:53:52.816Z,12.82
2023-03-10T13:58:59.196Z,13.00
2023-03-10T14:04:09.118Z,13.18
2023-03-10T14:09:20.698Z,13.18
2023-03-10T14:14:33.164Z,13.09
2023-03-10T14:19:42.363Z,13.00
2023-03-10T14:24:48.849Z,12.92
2023-03-10T14:30:01.233Z,12.89
2023-03-10T14:35:11.491Z,12.91
2023-03-10T14:40:19.628Z,12.85
2023-03-10T14:45:36.320Z,12.87
2023-03-10T14:50:42.245Z,12.88
2023-03-10T14:55:48.663Z,12.88
2023-03-10T15:00:52.272Z,12.84
2023-03-10T15:05:54.868Z,12.72
2023-03-10T15:10:59.810Z,12.68
2023-03-10T15:16:04.023Z,12.59
2023-03-10T15:21:09.301Z,12.49
2023-03-10T15:26:12.735Z,12.39
2023-03-10T15:31:18.544Z,12.31
2023-03-10T15:36:21.494Z,12.22
2023-03-10T15:41:24.153Z,12.08
2023-03-10T15:46:27.225Z,11.97
2023-03-10T15:51:29.656Z,11.84
2023-03-10T15:56:32.239Z,11.75
2023-03-10T16:01:35.629Z,11.63
2023-03-10T16:06:39.515Z,11.52
2023-03-10T16:11:41.910Z,11.43
2023-03-10T16:16:46.167Z,11.33
2023-03-10T16:21:48.512Z,11.20
2023-03-10T16:26:50.645Z,11.04
2023-03-10T16:31:54.440Z,10.89
2023-03-10T16:36:57.172Z,10.74
2023-03-10T16:42:01.883Z,10.56
2023-03-10T16:47:07.230Z,10.36
2023-03-10T16:52:13.816Z,10.15
2023-03-10T16:57:18.084Z,9.97
2023-03-10T17:02:21.091Z,9.83
2023-03-10T17:07:23.040Z,9.56
2023-03-10T17:12:25.945Z,9.35
2023-03-10T17:17:32.586Z,9.27
2023-03-10T17:22:37.810Z,9.14
2023-03-10T17:27:42.429Z,9.05
2023-03-10T17:32:49.340Z,9.00
2023-03-10T17:37:56.188Z,8.80
2023-03-10T17:43:17.331Z,8.59
2023-03-10T17:48:24.138Z,8.26
2023-03-10T17:53:28.176Z,8.00
2023-03-10T17:58:35.734Z,7.94
2023-03-10T18:03:41.217Z,8.02
2023-03-10T18:08:47.385Z,8.05
2023-03-10T18:13:52.286Z,8.03
2023-03-10T18:18:57.344Z,8.00
2023-03-10T18:24:01.108Z,7.80
2023-03-10T18:29:04.977Z,7.60
2023-03-10T18:34:12.923Z,7.37
2023-03-10T18:39:15.979Z,7.22
2023-03-10T18:44:20.194Z,7.12
2023-03-10T18:49:23.830Z,7.05
2023-03-10T18:54:28.975Z,7.06
2023-03-10T18:59:34.198Z,7.15
2023-03-10T19:04:43.826Z,7.20
2023-03-10T19:09:55.275Z,7.26
2023-03-10T19:15:01.745Z,7.32
2023-03-10T19:20:14.804Z,7.41
2023-03-10T19:25:18.339Z,7.42
2023-03-10T19:30:24.915Z,7.29
2023-03-10T19:35:31.615Z,7.15
2023-03-10T19:40:38.355Z,7.15
2023-03-10T19:45:44.208Z,7.24
2023-03-10T19:50:54.811Z,7.37
2023-03-10T19:56:04.888Z,7.44
2023-03-10T20:01:21.990Z,7.47
2023-03-10T20:06:26.014Z,7.57
2023-03-10T20:11:27.989Z,7.65
2023-03-10T20:16:33.780Z,7.68
2023-03-10T20:21:38.144Z,7.72
2023-03-10T20:26:41.886Z,7.74
2023-03-10T20:31:44.187Z,7.81
2023-03-10T20:36:46.769Z,7.89
2023-03-10T20:41:50.421Z,7.96
2023-03-10T20:46:53.563Z,7.98
2023-03-10T20:51:56.390Z,7.98
2023-03-10T20:56:58.834Z,7.96
2023-03-10T21:02:02.138Z,7.98
2023-03-10T21:07:09.593Z,8.01
2023-03-10T21:12:18.932Z,8.06
2023-03-10T21:17:23.292Z,8.17
2023-03-10T21:22:31.052Z,8.20
2023-03-10T21:27:35.347Z,8.05
2023-03-10T21:32:38.556Z,8.03
2023-03-10T21:37:44.598Z,8.03
2023-03-10T21:42:48.968Z,7.90
2023-03-10T21:47:52.319Z,7.80
2023-03-10T21:52:57.301Z,7.73
2023-03-10T21:57:59.806Z,7.65
2023-03-10T22:03:03.742Z,7.59
2023-03-10T22:08:06.955Z,7.55
2023-03-10T22:13:12.591Z,7.50
2023-03-10T22:18:15.256Z,7.43
2023-03-10T22:23:18.185Z,7.37
2023-03-10T22:28:21.397Z,7.31
2023-03-10T22:33:24.713Z,7.23
2023-03-10T22:38:27.564Z,7.15
2023-03-10T22:43:30.066Z,7.08
2023-03-10T22:48:32.454Z,7.00
2023-03-10T22:53:37.803Z,6.94
2023-03-10T22:58:40.924Z,6.88
2023-03-10T23:03:44.269Z,6.80
2023-03-10T23:08:47.996Z,6.74
2023-03-10T23:13:51.369Z,6.70
2023-03-10T23:18:54.644Z,6.71
2023-03-10T23:23:59.131Z,6.73
2023-03-10T23:29:02.856Z,6.68
2023-03-10T23:34:06.252Z,6.58
2023-03-10T23:39:13.592Z,6.58
2023-03-10T23:44:16.772Z,6.57
2023-03-10T23:49:22.759Z,6.49
2023-03-10T23:54:25.748Z,6.39
2023-03-10T23:59:28.844Z,6.35
